createdAt,value
2023-01-21T00:01:17.930Z,99854.78
2023-01-21T00:04:01.746Z,99863.78
2023-01-21T00:06:45.840Z,99866.69
2023-01-21T00:09:29.582Z,99866.97
2023-01-21T00:12:13.349Z,99861.94
2023-01-21T00:14:58.538Z,99866.06
2023-01-21T00:17:44.015Z,99882.50
2023-01-21T00:20:27.774Z,99880.97
2023-01-21T00:23:11.746Z,99869.94
2023-01-21T00:25:59.209Z,99846.00
2023-01-21T00:28:44.643Z,99882.78
2023-01-21T00:31:30.847Z,99858.88
2023-01-21T00:34:15.101Z,99892.34
2023-01-21T00:36:58.947Z,99889.19
2023-01-21T00:39:43.259Z,99897.34
2023-01-21T00:42:28.027Z,99889.72
2023-01-21T00:45:12.581Z,99861.03
2023-01-21T00:47:57.810Z,99890.09
2023-01-21T00:50:42.449Z,99886.78
2023-01-21T00:53:26.525Z,99898.84
2023-01-21T00:56:12.902Z,99891.00
2023-01-21T00:58:57.164Z,99897.44
2023-01-21T01:01:41.286Z,99900.41
2023-01-21T01:04:26.733Z,99892.06
2023-01-21T01:07:10.536Z,99889.50
2023-01-21T01:09:54.592Z,99896.75
2023-01-21T01:12:38.718Z,99902.13
2023-01-21T01:15:22.612Z,99882.88
2023-01-21T01:18:06.566Z,99904.03
2023-01-21T01:20:52.243Z,99896.75
2023-01-21T01:23:36.125Z,99901.03
2023-01-21T01:26:21.193Z,99899.53
2023-01-21T01:29:05.853Z,99893.00
2023-01-21T01:31:49.813Z,99905.09
2023-01-21T01:34:33.744Z,99901.66
2023-01-21T01:37:19.102Z,99905.78
2023-01-21T01:40:03.069Z,99905.50
2023-01-21T01:42:47.133Z,99898.59
2023-01-21T01:45:31.002Z,99903.47
2023-01-21T01:48:19.282Z,99916.31
2023-01-21T01:51:07.535Z,99908.41
2023-01-21T01:53:53.609Z,99890.88
2023-01-21T01:56:43.372Z,99916.84
2023-01-21T01:59:27.899Z,99912.03
2023-01-21T02:02:15.688Z,99908.91
2023-01-21T02:05:03.233Z,99919.88
2023-01-21T02:07:47.615Z,99905.56
2023-01-21T02:10:34.617Z,99894.81
2023-01-21T02:13:19.381Z,99863.50
2023-01-21T02:16:16.374Z,99858.03
2023-01-21T02:19:19.003Z,99909.91
2023-01-21T02:22:11.667Z,99897.38
2023-01-21T02:25:30.749Z,99918.56
2023-01-21T02:28:49.288Z,99930.91
2023-01-21T02:32:10.432Z,99927.09
2023-01-21T02:35:03.013Z,99931.03
2023-01-21T02:37:53.084Z,99927.31
2023-01-21T02:40:44.977Z,99914.34
2023-01-21T02:43:33.775Z,99916.53
2023-01-21T02:46:23.142Z,99931.69
2023-01-21T02:49:14.461Z,99931.59
2023-01-21T02:51:59.947Z,99923.09
2023-01-21T02:54:55.371Z,99920.09
2023-01-21T02:57:46.493Z,99908.06
2023-01-21T03:00:41.869Z,99906.66
2023-01-21T03:03:58.336Z,99912.06
2023-01-21T03:06:50.398Z,99913.97
2023-01-21T03:09:37.563Z,99914.97
2023-01-21T03:12:32.531Z,99910.75
2023-01-21T03:15:41.416Z,99920.81
2023-01-21T03:18:31.003Z,99910.41
2023-01-21T03:21:19.130Z,99918.84
2023-01-21T03:24:03.806Z,99883.25
2023-01-21T03:26:53.879Z,99919.56
2023-01-21T03:29:42.324Z,99918.16
2023-01-21T03:32:29.294Z,99925.19
2023-01-21T03:35:17.579Z,99875.53
2023-01-21T03:38:07.985Z,99923.31
2023-01-21T03:40:56.431Z,99928.97
2023-01-21T03:43:41.817Z,99937.53
2023-01-21T03:46:34.470Z,99925.34
2023-01-21T03:49:23.955Z,99940.22
2023-01-21T03:52:10.140Z,99945.34
2023-01-21T03:54:55.125Z,99958.16
2023-01-21T03:57:39.212Z,99954.97
2023-01-21T04:00:25.205Z,99968.38
2023-01-21T04:03:09.127Z,99975.56
2023-01-21T04:05:53.201Z,99959.91
2023-01-21T04:08:37.156Z,99973.78
2023-01-21T04:11:21.068Z,99988.22
2023-01-21T04:14:05.085Z,99981.84
2023-01-21T04:16:50.335Z,99952.72
2023-01-21T04:19:34.103Z,99991.75
2023-01-21T04:22:18.330Z,99993.38
2023-01-21T04:25:02.281Z,99983.84
2023-01-21T04:27:47.081Z,99973.44
2023-01-21T04:30:30.986Z,99991.69
2023-01-21T04:33:16.848Z,99964.19
2023-01-21T04:36:01.580Z,99989.16
2023-01-21T04:38:45.476Z,99938.66
2023-01-21T04:41:29.413Z,99988.59
2023-01-21T04:44:13.236Z,99992.28
2023-01-21T04:46:56.942Z,99953.25
2023-01-21T04:49:42.699Z,99995.03
2023-01-21T04:52:26.792Z,100004.84
2023-01-21T04:55:11.316Z,100011.28
2023-01-21T04:57:56.647Z,100013.66
2023-01-21T05:00:40.705Z,100020.91
2023-01-21T05:03:24.574Z,100025.28
2023-01-21T05:06:10.059Z,100026.03
2023-01-21T05:08:53.917Z,100029.06
2023-01-21T05:11:37.837Z,100028.09
2023-01-21T05:14:21.881Z,100026.03
2023-01-21T05:17:06.114Z,100029.13
2023-01-21T05:19:51.279Z,99987.94
2023-01-21T05:22:36.603Z,100039.97
2023-01-21T05:25:20.741Z,100033.38
2023-01-21T05:28:04.698Z,100044.56
2023-01-21T05:30:48.707Z,100047.13
2023-01-21T05:33:33.783Z,100047.38
2023-01-21T05:36:17.686Z,100054.13
2023-01-21T05:39:03.115Z,100055.50
2023-01-21T05:41:46.997Z,100059.47
2023-01-21T05:44:30.932Z,100027.34
2023-01-21T05:47:15.248Z,100043.03
2023-01-21T05:49:59.098Z,100049.16
2023-01-21T05:52:43.168Z,100063.78
2023-01-21T05:55:28.464Z,100039.81
2023-01-21T05:58:12.200Z,100058.19
2023-01-21T06:00:58.262Z,100078.56
2023-01-21T06:03:42.119Z,100079.38
2023-01-21T06:06:26.040Z,100075.50
2023-01-21T06:09:09.902Z,100081.13
2023-01-21T06:11:55.059Z,100080.69
2023-01-21T06:14:38.887Z,100079.63
2023-01-21T06:17:22.663Z,100081.72
2023-01-21T06:20:07.593Z,100076.25
2023-01-21T06:22:51.320Z,100050.88
2023-01-21T06:25:35.508Z,100083.75
2023-01-21T06:28:20.666Z,100088.22
2023-01-21T06:31:04.719Z,100074.53
2023-01-21T06:33:48.632Z,100045.41
2023-01-21T06:36:32.464Z,100092.78
2023-01-21T06:39:16.521Z,100109.63
2023-01-21T06:42:00.371Z,100106.53
2023-01-21T06:44:45.525Z,100111.13
2023-01-21T06:47:29.416Z,100117.75
2023-01-21T06:50:15.963Z,100108.88
2023-01-21T06:53:00.162Z,100100.75
2023-01-21T06:55:43.959Z,100108.81
2023-01-21T06:58:27.711Z,100114.53
2023-01-21T07:01:12.922Z,100093.88
2023-01-21T07:03:56.713Z,100104.94
2023-01-21T07:06:40.682Z,100112.22
2023-01-21T07:09:24.603Z,100119.94
2023-01-21T07:12:08.571Z,100123.16
2023-01-21T07:14:52.334Z,100126.78
2023-01-21T07:17:37.523Z,100118.22
2023-01-21T07:20:22.743Z,100138.34
2023-01-21T07:23:06.550Z,100118.19
2023-01-21T07:25:50.603Z,100130.94
2023-01-21T07:28:34.873Z,100124.41
2023-01-21T07:31:18.784Z,100136.72
2023-01-21T07:34:04.627Z,100127.47
2023-01-21T07:36:48.594Z,100132.88
2023-01-21T07:39:32.376Z,100134.91
2023-01-21T07:42:16.164Z,100106.84
2023-01-21T07:45:02.843Z,100136.13
2023-01-21T07:47:47.499Z,100136.53
2023-01-21T07:50:32.875Z,100139.09
2023-01-21T07:53:16.696Z,100123.78
2023-01-21T07:56:05.002Z,100140.16
2023-01-21T07:58:48.874Z,100036.53
2023-01-21T08:01:32.728Z,100143.66
2023-01-21T08:04:16.582Z,100123.72
2023-01-21T08:07:06.981Z,100140.84
2023-01-21T08:09:50.861Z,100138.59
2023-01-21T08:12:35.269Z,100140.00
2023-01-21T08:15:19.439Z,100134.34
2023-01-21T08:18:03.587Z,100137.03
2023-01-21T08:20:47.437Z,100133.28
2023-01-21T08:23:32.687Z,100123.16
2023-01-21T08:26:16.521Z,100133.44
2023-01-21T08:29:01.031Z,100133.75
2023-01-21T08:31:44.833Z,100130.25
2023-01-21T08:34:28.824Z,100134.25
2023-01-21T08:37:12.620Z,100139.88
2023-01-21T08:39:57.757Z,100108.78
2023-01-21T08:42:41.599Z,100143.84
2023-01-21T08:45:25.428Z,100137.22
2023-01-21T08:48:09.354Z,100128.97
2023-01-21T08:50:53.150Z,100147.34
2023-01-21T08:53:37.266Z,100143.38
2023-01-21T08:56:22.408Z,100136.66
2023-01-21T08:59:07.366Z,100118.84
2023-01-21T09:01:51.236Z,100140.69
2023-01-21T09:04:35.375Z,100149.38
2023-01-21T09:07:19.218Z,100138.72
2023-01-21T09:10:03.215Z,100128.34
2023-01-21T09:12:48.455Z,100128.28
2023-01-21T09:15:32.301Z,100127.19
2023-01-21T09:18:16.265Z,100127.53
2023-01-21T09:21:03.826Z,100129.72
2023-01-21T09:23:47.752Z,100119.63
2023-01-21T09:26:31.661Z,100112.41
2023-01-21T09:29:16.845Z,100120.56
2023-01-21T09:32:00.772Z,100127.25
2023-01-21T09:34:44.675Z,100124.84
2023-01-21T09:40:18.222Z,100135.38
2023-01-21T09:43:11.586Z,100116.09
2023-01-21T09:46:02.988Z,100129.56
2023-01-21T09:48:50.502Z,100129.50
2023-01-21T09:51:52.716Z,100123.84
2023-01-21T09:54:39.746Z,100107.59
2023-01-21T09:57:54.752Z,100103.63
2023-01-21T10:00:45.690Z,100104.19
2023-01-21T10:03:36.532Z,100097.09
2023-01-21T10:06:29.302Z,100110.63
2023-01-21T10:09:36.757Z,100103.78
2023-01-21T10:12:32.599Z,100101.69
2023-01-21T10:15:45.363Z,100101.84
2023-01-21T10:18:33.617Z,100095.41
2023-01-21T10:21:25.456Z,100092.78
2023-01-21T10:24:15.680Z,100086.81
2023-01-21T10:27:00.795Z,100086.59
2023-01-21T10:29:44.766Z,100070.94
2023-01-21T10:32:29.578Z,100074.16
2023-01-21T10:35:18.973Z,100040.59
2023-01-21T10:38:11.104Z,100074.53
2023-01-21T10:41:03.330Z,100063.16
2023-01-21T10:43:54.041Z,100061.13
2023-01-21T10:46:46.609Z,100063.06
2023-01-21T10:49:45.140Z,100057.06
2023-01-21T10:52:38.994Z,100055.31
2023-01-21T10:55:33.378Z,100056.19
2023-01-21T10:58:25.653Z,100043.34
2023-01-21T11:01:17.017Z,100061.50
2023-01-21T11:04:05.884Z,100058.59
2023-01-21T11:06:58.155Z,100046.88
2023-01-21T11:09:48.637Z,100045.47
2023-01-21T11:12:32.982Z,100034.97
2023-01-21T11:15:19.105Z,100026.13
2023-01-21T11:18:30.676Z,100054.09
2023-01-21T11:21:20.012Z,100049.19
2023-01-21T11:24:05.958Z,100042.53
2023-01-21T11:26:53.589Z,100050.41
2023-01-21T11:29:42.112Z,100041.06
2023-01-21T11:32:28.463Z,100049.03
2023-01-21T11:35:21.594Z,100051.19
2023-01-21T11:38:06.193Z,100043.16
2023-01-21T11:41:01.219Z,100048.25
2023-01-21T11:43:48.714Z,100052.16
2023-01-21T11:46:37.130Z,100057.00
2023-01-21T11:49:26.709Z,100033.91
2023-01-21T11:52:19.614Z,100055.50
2023-01-21T11:55:04.929Z,100052.19
2023-01-21T11:57:54.066Z,100070.59
2023-01-21T12:00:39.606Z,100054.44
2023-01-21T12:03:27.675Z,100065.50
2023-01-21T12:06:18.964Z,100045.09
2023-01-21T12:09:06.346Z,100077.47
2023-01-21T12:12:12.628Z,100072.28
2023-01-21T12:14:59.640Z,100077.66
2023-01-21T12:17:53.443Z,100077.72
2023-01-21T12:20:46.439Z,100078.03
2023-01-21T12:23:45.804Z,100086.09
2023-01-21T12:26:37.630Z,100094.63
2023-01-21T12:29:37.530Z,100089.44
2023-01-21T12:32:26.535Z,100096.25
2023-01-21T12:35:17.765Z,100101.69
2023-01-21T12:38:05.967Z,100099.06
2023-01-21T12:40:56.588Z,100109.09
2023-01-21T12:43:43.848Z,100110.31
2023-01-21T12:46:35.178Z,100111.47
2023-01-21T12:49:23.620Z,100118.69
2023-01-21T12:52:16.811Z,100091.88
2023-01-21T12:55:08.863Z,100123.22
2023-01-21T12:57:58.801Z,100124.88
2023-01-21T13:00:46.491Z,100130.75
2023-01-21T13:03:38.697Z,100123.88
2023-01-21T13:06:47.124Z,100115.34
2023-01-21T13:09:42.523Z,100135.03
2023-01-21T13:12:29.761Z,100132.94
2023-01-21T13:15:19.386Z,100146.22
2023-01-21T13:18:11.774Z,100126.91
2023-01-21T13:21:01.843Z,100120.09
2023-01-21T13:23:50.407Z,100145.75
2023-01-21T13:26:44.182Z,100136.09
2023-01-21T13:29:37.752Z,100136.47
2023-01-21T13:32:35.860Z,100157.47
2023-01-21T13:35:30.165Z,100153.97
2023-01-21T13:38:25.557Z,100150.75
2023-01-21T13:41:23.412Z,100157.00
2023-01-21T13:44:42.091Z,100161.91
2023-01-21T13:47:48.524Z,100149.63
2023-01-21T13:50:49.385Z,100155.50
2023-01-21T13:53:49.024Z,100152.50
2023-01-21T13:56:47.811Z,100172.38
2023-01-21T13:59:36.429Z,100178.75
2023-01-21T14:02:27.505Z,100180.09
2023-01-21T14:05:17.984Z,100169.50
2023-01-21T14:08:07.296Z,100183.59
2023-01-21T14:10:54.872Z,100136.28
2023-01-21T14:14:18.206Z,100163.41
2023-01-21T14:17:19.341Z,100183.34
2023-01-21T14:20:33.525Z,100186.72
2023-01-21T14:23:42.970Z,100204.69
2023-01-21T14:26:53.159Z,100194.97
2023-01-21T14:29:45.113Z,100204.28
2023-01-21T14:32:35.674Z,100191.09
2023-01-21T14:35:27.598Z,100203.56
2023-01-21T14:38:19.818Z,100212.00
2023-01-21T14:41:09.475Z,100216.47
2023-01-21T14:43:54.242Z,100187.78
2023-01-21T14:46:38.097Z,100220.88
2023-01-21T14:49:40.944Z,100212.91
2023-01-21T14:52:32.263Z,100197.94
2023-01-21T14:55:30.192Z,100211.97
2023-01-21T14:58:25.903Z,100216.56
2023-01-21T15:01:25.455Z,100227.75
2023-01-21T15:04:21.892Z,100218.34
2023-01-21T15:07:10.604Z,100224.00
2023-01-21T15:09:58.047Z,100223.31
2023-01-21T15:12:50.469Z,100218.78
2023-01-21T15:15:37.116Z,100226.28
2023-01-21T15:18:27.156Z,100216.81
2023-01-21T15:21:35.795Z,100231.81
2023-01-21T15:24:26.126Z,100237.72
2023-01-21T15:27:20.111Z,100232.09
2023-01-21T15:30:27.651Z,100236.88
2023-01-21T15:33:16.538Z,100234.72
2023-01-21T15:36:02.640Z,100199.13
2023-01-21T15:38:46.751Z,100240.09
2023-01-21T15:41:43.466Z,100247.09
2023-01-21T15:44:53.107Z,100258.19
2023-01-21T15:47:49.823Z,100203.91
2023-01-21T15:50:42.200Z,100259.72
2023-01-21T15:53:41.163Z,100260.75
2023-01-21T15:56:56.355Z,100259.66
2023-01-21T16:00:08.825Z,100254.53
2023-01-21T16:02:59.121Z,100261.28
2023-01-21T16:05:51.462Z,100257.00
2023-01-21T16:08:48.540Z,100268.97
2023-01-21T16:11:50.667Z,100241.28
2023-01-21T16:14:46.619Z,100232.78
2023-01-21T16:17:44.368Z,100275.22
2023-01-21T16:20:28.242Z,100278.53
2023-01-21T16:23:15.996Z,100270.84
2023-01-21T16:25:59.959Z,100277.38
2023-01-21T16:28:45.782Z,100279.56
2023-01-21T16:31:29.613Z,100280.69
2023-01-21T16:34:14.916Z,100282.13
2023-01-21T16:36:58.986Z,100278.19
2023-01-21T16:39:43.984Z,100280.69
2023-01-21T16:42:36.234Z,100279.91
2023-01-21T16:45:23.400Z,100285.53
2023-01-21T16:48:20.540Z,100284.69
2023-01-21T16:51:06.564Z,100284.94
2023-01-21T16:53:50.836Z,100302.97
2023-01-21T16:56:34.628Z,100298.09
2023-01-21T16:59:21.991Z,100311.75
2023-01-21T17:02:07.120Z,100306.84
2023-01-21T17:04:51.279Z,100268.13
2023-01-21T17:07:43.577Z,100316.91
2023-01-21T17:10:34.258Z,100317.53
2023-01-21T17:13:18.190Z,100311.59
2023-01-21T17:16:04.321Z,100322.13
2023-01-21T17:18:54.443Z,100312.66
2023-01-21T17:21:41.393Z,100317.78
2023-01-21T17:24:30.273Z,100295.03
2023-01-21T17:27:20.349Z,100321.34
2023-01-21T17:30:29.318Z,100323.97
2023-01-21T17:33:30.536Z,100322.63
2023-01-21T17:36:16.521Z,100323.63
2023-01-21T17:39:00.488Z,100317.97
2023-01-21T17:41:46.807Z,100341.78
2023-01-21T17:44:31.624Z,100326.19
2023-01-21T17:47:23.476Z,100347.22
2023-01-21T17:50:23.355Z,100364.41
2023-01-21T17:53:15.562Z,100366.91
2023-01-21T17:56:02.886Z,100367.38
2023-01-21T17:58:53.318Z,100371.13
2023-01-21T18:01:38.673Z,100362.00
2023-01-21T18:04:23.676Z,100326.25
2023-01-21T18:07:19.661Z,100353.34
2023-01-21T18:10:05.822Z,100332.19
2023-01-21T18:12:50.827Z,100356.41
2023-01-21T18:15:36.580Z,100325.00
2023-01-21T18:18:22.972Z,100355.59
2023-01-21T18:21:08.428Z,100360.88
2023-01-21T18:23:53.000Z,100322.63
2023-01-21T18:26:38.996Z,100315.66
2023-01-21T18:29:24.146Z,100359.38
2023-01-21T18:32:13.577Z,100367.56
2023-01-21T18:34:58.138Z,100364.97
2023-01-21T18:37:42.750Z,100369.25
2023-01-21T18:40:26.727Z,100375.25
2023-01-21T18:43:11.226Z,100381.88
2023-01-21T18:45:56.290Z,100386.38
2023-01-21T18:48:43.225Z,100387.53
2023-01-21T18:51:29.001Z,100392.88
2023-01-21T18:54:15.470Z,100418.91
2023-01-21T18:57:01.351Z,100415.13
2023-01-21T18:59:45.597Z,100421.47
2023-01-21T19:02:29.704Z,100423.84
2023-01-21T19:05:17.342Z,100412.78
2023-01-21T19:08:02.500Z,100400.44
2023-01-21T19:10:47.055Z,100427.19
2023-01-21T19:13:31.264Z,100427.25
2023-01-21T19:16:19.424Z,100422.09
2023-01-21T19:19:11.855Z,100431.03
2023-01-21T19:21:58.466Z,100426.22
2023-01-21T19:24:44.000Z,100422.09
2023-01-21T19:27:30.701Z,100417.03
2023-01-21T19:30:23.570Z,100432.81
2023-01-21T19:33:08.432Z,100429.28
2023-01-21T19:36:00.212Z,100427.78
2023-01-21T19:38:48.722Z,100430.81
2023-01-21T19:41:32.948Z,100439.56
2023-01-21T19:44:18.066Z,100441.38
2023-01-21T19:47:03.960Z,100433.03
2023-01-21T19:49:48.761Z,100437.06
2023-01-21T19:52:33.703Z,100438.34
2023-01-21T19:55:20.849Z,100438.25
2023-01-21T19:58:08.736Z,100428.16
2023-01-21T20:00:55.171Z,100429.25
2023-01-21T20:03:48.079Z,100434.63
2023-01-21T20:06:42.985Z,100437.25
2023-01-21T20:09:27.936Z,100434.91
2023-01-21T20:12:14.328Z,100446.28
2023-01-21T20:14:58.791Z,100456.06
2023-01-21T20:17:45.294Z,100451.16
2023-01-21T20:20:31.524Z,100470.09
2023-01-21T20:23:16.908Z,100473.25
2023-01-21T20:26:01.628Z,100473.19
2023-01-21T20:28:51.602Z,100477.06
2023-01-21T20:31:36.108Z,100478.94
2023-01-21T20:34:20.229Z,100477.59
2023-01-21T20:37:04.538Z,100488.44
2023-01-21T20:39:48.637Z,100472.31
2023-01-21T20:42:32.743Z,100358.63
2023-01-21T20:45:20.364Z,100490.28
2023-01-21T20:48:05.521Z,100494.88
2023-01-21T20:50:49.860Z,100487.31
2023-01-21T20:53:34.328Z,100505.88
2023-01-21T20:56:21.454Z,100505.56
2023-01-21T20:59:05.504Z,100513.25
2023-01-21T21:01:51.945Z,100516.91
2023-01-21T21:04:35.920Z,100528.28
2023-01-21T21:07:24.101Z,100538.88
2023-01-21T21:10:15.563Z,100527.66
2023-01-21T21:13:00.105Z,100545.25
2023-01-21T21:15:46.669Z,100550.00
2023-01-21T21:18:32.110Z,100548.53
2023-01-21T21:21:16.073Z,100562.75
2023-01-21T21:23:59.866Z,100572.03
2023-01-21T21:26:44.629Z,100571.72
2023-01-21T21:29:28.553Z,100551.22
2023-01-21T21:32:13.709Z,100567.03
2023-01-21T21:34:58.908Z,100539.16
2023-01-21T21:37:43.659Z,100553.41
2023-01-21T21:40:30.284Z,100555.38
2023-01-21T21:43:38.960Z,100552.38
2023-01-21T21:46:40.529Z,100535.75
2023-01-21T21:49:24.389Z,100539.78
2023-01-21T21:52:09.763Z,100515.06
2023-01-21T21:54:54.943Z,100521.09
2023-01-21T21:57:38.916Z,100544.53
2023-01-21T22:00:23.199Z,100522.78
2023-01-21T22:03:07.749Z,100479.69
2023-01-21T22:05:57.935Z,100487.59
2023-01-21T22:08:44.352Z,100498.09
2023-01-21T22:11:29.521Z,100454.69
2023-01-21T22:14:14.054Z,100502.00
2023-01-21T22:16:58.070Z,100529.81
2023-01-21T22:19:42.105Z,100521.47
2023-01-21T22:22:25.978Z,100538.91
2023-01-21T22:25:11.951Z,100497.97
2023-01-21T22:27:56.088Z,100495.22
2023-01-21T22:30:40.220Z,100492.19
2023-01-21T22:33:24.245Z,100522.56
2023-01-21T22:36:10.665Z,100458.03
2023-01-21T22:38:55.386Z,100531.16
2023-01-21T22:41:40.847Z,100503.97
2023-01-21T22:44:24.975Z,100497.88
2023-01-21T22:47:09.034Z,100523.91
2023-01-21T22:49:53.056Z,100526.38
2023-01-21T22:52:37.351Z,100526.88
2023-01-21T22:55:21.327Z,100499.25
2023-01-21T22:58:06.793Z,100519.31
2023-01-21T23:00:52.158Z,100486.41
2023-01-21T23:03:35.930Z,100506.78
2023-01-21T23:06:20.058Z,100505.41
2023-01-21T23:09:04.167Z,100508.28
2023-01-21T23:11:48.512Z,100408.25
2023-01-21T23:14:33.648Z,100502.72
2023-01-21T23:17:17.860Z,100499.25
2023-01-21T23:20:01.510Z,100495.19
2023-01-21T23:22:47.391Z,100503.06
2023-01-21T23:25:31.204Z,100492.63
2023-01-21T23:28:16.241Z,100494.56
2023-01-21T23:31:05.156Z,100473.94
2023-01-21T23:33:50.855Z,100488.16
2023-01-21T23:36:34.759Z,100487.22
2023-01-21T23:39:19.101Z,100497.13
2023-01-21T23:42:02.934Z,100499.78
2023-01-21T23:44:46.840Z,100504.91
2023-01-21T23:47:31.919Z,100502.91
2023-01-21T23:50:16.494Z,100527.97
2023-01-21T23:53:00.589Z,100529.78
2023-01-21T23:55:44.464Z,100526.66
2023-01-21T23:58:28.214Z,100520.34
